^^
Saratoga-Weather Station Historical Data
Daily Summary for June 8, 2020 Units:  Both    English   Metric
Daily Weekly Monthly Yearly Custom
  High: Low: Average:
Temperature: 77.4 °F /  25.2 °C 44.6 °F /  7 °C 61.9 °F /  16.6 °C
Dew Point: 49.1 °F /  9.5 °C 41 °F /  5 °C 44.8 °F /  7.1 °C
Humidity: 90% 33% 57%
Wind Speed: 6mph /  9.7km/h - 0.7mph /  1.2km/h
Wind Gust: 8mph /  12.9km/h - -
Wind- - SSE
Pressure: 30.1 in /  1018.6 hPa 29.9 in /  1012.9 hPa -
Precipitation: 0 in /  0.0 mm    
Historical Graphs
 
 
Tabular Data for June 8, 2020
Time Temperature Dew Point Pressure Wind Wind Speed Wind Gust Humidity Rainfall Rate (Hourly) solar
00:01 52.5 °F /  11.4 °C 41.9 °F /  5.5 °C 30.1in /  1018.6hPa Calm     67% 0in /  0.0mm 0 W/m2
00:06 52.5 °F /  11.4 °C 42.3 °F /  5.7 °C 30.1in /  1018.6hPa Calm     68% 0in /  0.0mm 0 W/m2
00:11 52.3 °F /  11.3 °C 42.1 °F /  5.6 °C 30.1in /  1018.6hPa Calm     68% 0in /  0.0mm 0 W/m2
00:16 52.3 °F /  11.3 °C 42.1 °F /  5.6 °C 30.1in /  1018.6hPa Calm     68% 0in /  0.0mm 0 W/m2
00:21 52.3 °F /  11.3 °C 42.1 °F /  5.6 °C 30.1in /  1018.3hPa Calm     68% 0in /  0.0mm 0 W/m2
00:26 52.2 °F /  11.2 °C 42.3 °F /  5.7 °C 30.1in /  1018.3hPa Calm     69% 0in /  0.0mm 0 W/m2
00:31 52.2 °F /  11.2 °C 42.6 °F /  5.9 °C 30.1in /  1018.6hPa Calm     70% 0in /  0.0mm 0 W/m2
00:36 52.2 °F /  11.2 °C 42.6 °F /  5.9 °C 30.1in /  1018.6hPa Calm     70% 0in /  0.0mm 0 W/m2
00:41 52.3 °F /  11.3 °C 42.8 °F /  6 °C 30.1in /  1018.3hPa Calm     70% 0in /  0.0mm 0 W/m2
00:46 52.3 °F /  11.3 °C 42.8 °F /  6 °C 30.1in /  1018.3hPa Calm     70% 0in /  0.0mm 0 W/m2
00:51 52.3 °F /  11.3 °C 42.8 °F /  6 °C 30.1in /  1018.3hPa Calm     70% 0in /  0.0mm 0 W/m2
00:56 52.2 °F /  11.2 °C 42.6 °F /  5.9 °C 30.1in /  1018.3hPa Calm     70% 0in /  0.0mm 0 W/m2
01:01 52.2 °F /  11.2 °C 42.6 °F /  5.9 °C 30.1in /  1018.3hPa Calm     70% 0in /  0.0mm 0 W/m2
01:06 52 °F /  11.1 °C 42.4 °F /  5.8 °C 30.1in /  1018.3hPa Calm     70% 0in /  0.0mm 0 W/m2
01:11 51.8 °F /  11 °C 42.6 °F /  5.9 °C 30.1in /  1018.3hPa Calm     71% 0in /  0.0mm 0 W/m2
01:16 51.6 °F /  10.9 °C 42.4 °F /  5.8 °C 30.1in /  1018.3hPa Calm     71% 0in /  0.0mm 0 W/m2
01:21 51.3 °F /  10.7 °C 42.6 °F /  5.9 °C 30.1in /  1018.3hPa Calm     72% 0in /  0.0mm 0 W/m2
01:26 51.3 °F /  10.7 °C 42.6 °F /  5.9 °C 30.1in /  1018.6hPa Calm     72% 0in /  0.0mm 0 W/m2
01:31 51.1 °F /  10.6 °C 42.8 °F /  6 °C 30.1in /  1018.3hPa Calm     73% 0in /  0.0mm 0 W/m2
01:37 50.7 °F /  10.4 °C 42.4 °F /  5.8 °C 30.1in /  1018.3hPa Calm     73% 0in /  0.0mm 0 W/m2
01:42 50.5 °F /  10.3 °C 42.3 °F /  5.7 °C 30.1in /  1018.3hPa Calm     73% 0in /  0.0mm 0 W/m2
01:47 50.4 °F /  10.2 °C 42.4 °F /  5.8 °C 30.1in /  1018.3hPa Calm     74% 0in /  0.0mm 0 W/m2
01:52 50.2 °F /  10.1 °C 42.6 °F /  5.9 °C 30.1in /  1018.3hPa Calm     75% 0in /  0.0mm 0 W/m2
01:57 49.8 °F /  9.9 °C 42.3 °F /  5.7 °C 30.1in /  1018.3hPa Calm   1mph /  1.6km/h 75% 0in /  0.0mm 0 W/m2
02:02 49.6 °F /  9.8 °C 42.4 °F /  5.8 °C 30.1in /  1018.3hPa Calm     76% 0in /  0.0mm 0 W/m2
02:07 49.6 °F /  9.8 °C 42.4 °F /  5.8 °C 30.1in /  1018.3hPa Calm   1mph /  1.6km/h 76% 0in /  0.0mm 0 W/m2
02:12 49.5 °F /  9.7 °C 42.3 °F /  5.7 °C 30.1in /  1018.3hPa Calm     76% 0in /  0.0mm 0 W/m2
02:17 49.3 °F /  9.6 °C 42.1 °F /  5.6 °C 30.1in /  1018.3hPa Calm     76% 0in /  0.0mm 0 W/m2
02:22 49.1 °F /  9.5 °C 41.9 °F /  5.5 °C 30.1in /  1018.0hPa Calm     76% 0in /  0.0mm 0 W/m2
02:27 48.9 °F /  9.4 °C 42.1 °F /  5.6 °C 30.1in /  1018.0hPa Calm     77% 0in /  0.0mm 0 W/m2
02:32 48.7 °F /  9.3 °C 41.9 °F /  5.5 °C 30.1in /  1018.0hPa Calm     77% 0in /  0.0mm 0 W/m2
02:37 48.7 °F /  9.3 °C 41.9 °F /  5.5 °C 30.1in /  1018.0hPa Calm     77% 0in /  0.0mm 0 W/m2
02:42 48.6 °F /  9.2 °C 42.1 °F /  5.6 °C 30.1in /  1018.0hPa Calm     78% 0in /  0.0mm 0 W/m2
02:47 48.6 °F /  9.2 °C 42.1 °F /  5.6 °C 30.1in /  1018.0hPa Calm     78% 0in /  0.0mm 0 W/m2
02:52 48.4 °F /  9.1 °C 42.3 °F /  5.7 °C 30.1in /  1018.0hPa Calm     79% 0in /  0.0mm 0 W/m2
02:57 48.4 °F /  9.1 °C 42.3 °F /  5.7 °C 30.1in /  1018.0hPa Calm     79% 0in /  0.0mm 0 W/m2
03:02 48.4 °F /  9.1 °C 42.3 °F /  5.7 °C 30.1in /  1018.0hPa Calm     79% 0in /  0.0mm 0 W/m2
03:07 48.2 °F /  9 °C 42.1 °F /  5.6 °C 30.1in /  1018.0hPa Calm     79% 0in /  0.0mm 0 W/m2
03:12 48.2 °F /  9 °C 42.3 °F /  5.7 °C 30.1in /  1018.0hPa Calm     80% 0in /  0.0mm 0 W/m2
03:17 48 °F /  8.9 °C 42.1 °F /  5.6 °C 30.1in /  1018.0hPa Calm     80% 0in /  0.0mm 0 W/m2
03:22 48 °F /  8.9 °C 42.1 °F /  5.6 °C 30.1in /  1018.0hPa Calm     80% 0in /  0.0mm 0 W/m2
03:27 48 °F /  8.9 °C 42.1 °F /  5.6 °C 30.1in /  1018.0hPa Calm     80% 0in /  0.0mm 0 W/m2
03:32 47.8 °F /  8.8 °C 41.9 °F /  5.5 °C 30.1in /  1018.0hPa Calm     80% 0in /  0.0mm 0 W/m2
03:37 47.8 °F /  8.8 °C 41.9 °F /  5.5 °C 30.1in /  1018.0hPa Calm     80% 0in /  0.0mm 0 W/m2
03:42 47.8 °F /  8.8 °C 42.3 °F /  5.7 °C 30.1in /  1018.0hPa Calm     81% 0in /  0.0mm 0 W/m2
03:47 47.7 °F /  8.7 °C 42.1 °F /  5.6 °C 30.1in /  1017.6hPa Calm     81% 0in /  0.0mm 0 W/m2
03:53 47.7 °F /  8.7 °C 42.1 °F /  5.6 °C 30.1in /  1017.6hPa Calm     81% 0in /  0.0mm 0 W/m2
03:58 47.7 °F /  8.7 °C 42.1 °F /  5.6 °C 30.1in /  1017.6hPa Calm     81% 0in /  0.0mm 0 W/m2
04:03 47.5 °F /  8.6 °C 41.9 °F /  5.5 °C 30.1in /  1017.6hPa Calm     81% 0in /  0.0mm 0 W/m2
04:08 47.3 °F /  8.5 °C 41.7 °F /  5.4 °C 30.1in /  1017.6hPa Calm     81% 0in /  0.0mm 0 W/m2
04:13 47.1 °F /  8.4 °C 41.9 °F /  5.5 °C 30.1in /  1017.6hPa Calm     82% 0in /  0.0mm 0 W/m2
04:18 46.9 °F /  8.3 °C 41.7 °F /  5.4 °C 30.1in /  1017.6hPa Calm     82% 0in /  0.0mm 0 W/m2
04:23 46.8 °F /  8.2 °C 41.9 °F /  5.5 °C 30.1in /  1017.6hPa Calm     83% 0in /  0.0mm 0 W/m2
04:28 46.6 °F /  8.1 °C 41.7 °F /  5.4 °C 30.1in /  1017.6hPa Calm     83% 0in /  0.0mm 0 W/m2
04:33 46.6 °F /  8.1 °C 42.1 °F /  5.6 °C 30.1in /  1017.6hPa Calm     84% 0in /  0.0mm 0 W/m2
04:38 46.4 °F /  8 °C 41.5 °F /  5.3 °C 30.1in /  1017.6hPa Calm     83% 0in /  0.0mm 0 W/m2
04:43 46.2 °F /  7.9 °C 41.7 °F /  5.4 °C 30.1in /  1017.6hPa Calm     84% 0in /  0.0mm 0 W/m2
04:48 46.2 °F /  7.9 °C 41.7 °F /  5.4 °C 30in /  1017.3hPa Calm     84% 0in /  0.0mm 0 W/m2
04:53 46 °F /  7.8 °C 41.5 °F /  5.3 °C 30in /  1017.3hPa Calm     84% 0in /  0.0mm 0 W/m2
04:58 46 °F /  7.8 °C 41.5 °F /  5.3 °C 30.1in /  1017.6hPa Calm     84% 0in /  0.0mm 0 W/m2
05:03 45.9 °F /  7.7 °C 41.4 °F /  5.2 °C 30.1in /  1017.6hPa Calm     84% 0in /  0.0mm 0 W/m2
05:08 45.7 °F /  7.6 °C 41.4 °F /  5.2 °C 30.1in /  1017.6hPa Calm     85% 0in /  0.0mm 0 W/m2
05:13 45.3 °F /  7.4 °C 41 °F /  5 °C 30.1in /  1017.6hPa Calm     85% 0in /  0.0mm 0 W/m2
05:18 45.3 °F /  7.4 °C 41 °F /  5 °C 30.1in /  1017.6hPa Calm     85% 0in /  0.0mm 0 W/m2
05:23 45.1 °F /  7.3 °C 41.2 °F /  5.1 °C 30.1in /  1017.6hPa Calm     86% 0in /  0.0mm 0 W/m2
05:28 45.1 °F /  7.3 °C 41.2 °F /  5.1 °C 30in /  1017.3hPa Calm     86% 0in /  0.0mm 0 W/m2
05:33 45 °F /  7.2 °C 41.4 °F /  5.2 °C 30in /  1017.3hPa Calm     87% 0in /  0.0mm 0 W/m2
05:38 45.1 °F /  7.3 °C 41.5 °F /  5.3 °C 30in /  1017.3hPa Calm     87% 0in /  0.0mm 0 W/m2
05:43 45.1 °F /  7.3 °C 41.7 °F /  5.4 °C 30in /  1017.3hPa Calm     88% 0in /  0.0mm 0 W/m2
05:48 45.1 °F /  7.3 °C 41.7 °F /  5.4 °C 30in /  1017.3hPa Calm     88% 0in /  0.0mm 0 W/m2
05:53 45.1 °F /  7.3 °C 41.7 °F /  5.4 °C 30in /  1017.3hPa Calm     88% 0in /  0.0mm 0 W/m2
05:58 45 °F /  7.2 °C 41.5 °F /  5.3 °C 30in /  1017.3hPa Calm     88% 0in /  0.0mm 0 W/m2
06:03 45 °F /  7.2 °C 41.5 °F /  5.3 °C 30in /  1017.3hPa Calm     88% 0in /  0.0mm 0 W/m2
06:08 44.8 °F /  7.1 °C 41.4 °F /  5.2 °C 30.1in /  1017.6hPa Calm     88% 0in /  0.0mm 5 W/m2
06:13 44.8 °F /  7.1 °C 41.4 °F /  5.2 °C 30in /  1017.3hPa Calm     88% 0in /  0.0mm 7 W/m2
06:18 44.8 °F /  7.1 °C 41.7 °F /  5.4 °C 30in /  1017.3hPa Calm     89% 0in /  0.0mm 11 W/m2
06:23 44.8 °F /  7.1 °C 41.7 °F /  5.4 °C 30in /  1017.3hPa Calm     89% 0in /  0.0mm 14 W/m2
06:28 44.8 °F /  7.1 °C 41.7 °F /  5.4 °C 30.1in /  1017.6hPa Calm     89% 0in /  0.0mm 18 W/m2
06:33 44.6 °F /  7 °C 41.5 °F /  5.3 °C 30.1in /  1017.6hPa Calm     89% 0in /  0.0mm 18 W/m2
06:38 44.6 °F /  7 °C 41.9 °F /  5.5 °C 30.1in /  1017.6hPa Calm     90% 0in /  0.0mm 21 W/m2
06:43 44.8 °F /  7.1 °C 42.1 °F /  5.6 °C 30.1in /  1017.6hPa Calm     90% 0in /  0.0mm 23 W/m2
06:48 44.8 °F /  7.1 °C 42.1 °F /  5.6 °C 30.1in /  1017.6hPa Calm     90% 0in /  0.0mm 26 W/m2
06:53 45 °F /  7.2 °C 42.3 °F /  5.7 °C 30.1in /  1017.6hPa Calm     90% 0in /  0.0mm 26 W/m2
06:58 45 °F /  7.2 °C 42.3 °F /  5.7 °C 30.1in /  1017.6hPa Calm     90% 0in /  0.0mm 28 W/m2
07:03 45.1 °F /  7.3 °C 42.4 °F /  5.8 °C 30.1in /  1017.6hPa Calm     90% 0in /  0.0mm 32 W/m2
07:08 45.3 °F /  7.4 °C 42.6 °F /  5.9 °C 30.1in /  1017.6hPa Calm     90% 0in /  0.0mm 33 W/m2
07:13 45.5 °F /  7.5 °C 42.4 °F /  5.8 °C 30.1in /  1017.6hPa Calm     89% 0in /  0.0mm 37 W/m2
07:18 45.7 °F /  7.6 °C 42.6 °F /  5.9 °C 30.1in /  1017.6hPa Calm     89% 0in /  0.0mm 39 W/m2
07:23 45.9 °F /  7.7 °C 42.8 °F /  6 °C 30.1in /  1017.6hPa Calm     89% 0in /  0.0mm 39 W/m2
07:28 46.2 °F /  7.9 °C 42.8 °F /  6 °C 30.1in /  1017.6hPa Calm     88% 0in /  0.0mm 40 W/m2
07:33 46.8 °F /  8.2 °C 43.3 °F /  6.3 °C 30.1in /  1018.0hPa Calm     88% 0in /  0.0mm 40 W/m2
07:38 47.1 °F /  8.4 °C 43.5 °F /  6.4 °C 30.1in /  1018.0hPa Calm     87% 0in /  0.0mm 42 W/m2
07:43 47.7 °F /  8.7 °C 43.7 °F /  6.5 °C 30.1in /  1018.0hPa Calm     86% 0in /  0.0mm 67 W/m2
07:48 48 °F /  8.9 °C 44.1 °F /  6.7 °C 30.1in /  1018.0hPa Calm     86% 0in /  0.0mm 49 W/m2
07:54 48.6 °F /  9.2 °C 44.6 °F /  7 °C 30.1in /  1018.0hPa Calm     86% 0in /  0.0mm 107 W/m2
07:59 49.1 °F /  9.5 °C 44.8 °F /  7.1 °C 30.1in /  1018.0hPa Calm     85% 0in /  0.0mm 248 W/m2
08:04 49.8 °F /  9.9 °C 45.5 °F /  7.5 °C 30.1in /  1018.0hPa Calm     85% 0in /  0.0mm 257 W/m2
08:09 51.3 °F /  10.7 °C 46 °F /  7.8 °C 30.1in /  1018.0hPa NNW 0.9mph /  1.4km/h 2mph /  3.2km/h 82% 0in /  0.0mm 272 W/m2
08:14 52.5 °F /  11.4 °C 46.2 °F /  7.9 °C 30.1in /  1018.0hPa Calm   1mph /  1.6km/h 79% 0in /  0.0mm 281 W/m2
08:19 53.4 °F /  11.9 °C 45.7 °F /  7.6 °C 30.1in /  1018.0hPa ENE 2mph /  3.2km/h 3mph /  4.8km/h 75% 0in /  0.0mm 288 W/m2
08:24 54.1 °F /  12.3 °C 45.3 °F /  7.4 °C 30.1in /  1018.0hPa NE 0.9mph /  1.4km/h 2mph /  3.2km/h 72% 0in /  0.0mm 323 W/m2
08:29 54.7 °F /  12.6 °C 45.9 °F /  7.7 °C 30.1in /  1018.0hPa ENE 2mph /  3.2km/h 2mph /  3.2km/h 72% 0in /  0.0mm 292 W/m2
08:34 55.6 °F /  13.1 °C 46 °F /  7.8 °C 30.1in /  1018.0hPa Calm   3mph /  4.8km/h 70% 0in /  0.0mm 330 W/m2
08:39 55.9 °F /  13.3 °C 45.9 °F /  7.7 °C 30.1in /  1018.0hPa ENE 0.9mph /  1.4km/h 2mph /  3.2km/h 69% 0in /  0.0mm 325 W/m2
08:44 56.1 °F /  13.4 °C 46 °F /  7.8 °C 30.1in /  1018.0hPa East 2mph /  3.2km/h 2mph /  3.2km/h 69% 0in /  0.0mm 302 W/m2
08:49 56.1 °F /  13.4 °C 45.7 °F /  7.6 °C 30.1in /  1018.0hPa Calm   2mph /  3.2km/h 68% 0in /  0.0mm 287 W/m2
08:54 56.1 °F /  13.4 °C 46 °F /  7.8 °C 30.1in /  1018.0hPa Calm     69% 0in /  0.0mm 311 W/m2
08:59 56.5 °F /  13.6 °C 46 °F /  7.8 °C 30.1in /  1018.0hPa Calm   1mph /  1.6km/h 68% 0in /  0.0mm 353 W/m2
09:04 56.8 °F /  13.8 °C 46.4 °F /  8 °C 30.1in /  1018.0hPa NE 0.9mph /  1.4km/h 2mph /  3.2km/h 68% 0in /  0.0mm 345 W/m2
09:09 57 °F /  13.9 °C 46.2 °F /  7.9 °C 30.1in /  1018.0hPa Calm   2mph /  3.2km/h 67% 0in /  0.0mm 420 W/m2
09:14 57.6 °F /  14.2 °C 46.8 °F /  8.2 °C 30.1in /  1018.0hPa Calm   1mph /  1.6km/h 67% 0in /  0.0mm 432 W/m2
09:19 58.1 °F /  14.5 °C 47.1 °F /  8.4 °C 30.1in /  1017.6hPa East 2mph /  3.2km/h 2mph /  3.2km/h 67% 0in /  0.0mm 457 W/m2
09:24 58.8 °F /  14.9 °C 47.5 °F /  8.6 °C 30.1in /  1017.6hPa ESE 0.9mph /  1.4km/h 1mph /  1.6km/h 66% 0in /  0.0mm 454 W/m2
09:29 59.5 °F /  15.3 °C 47.3 °F /  8.5 °C 30.1in /  1017.6hPa NNE 2mph /  3.2km/h 2mph /  3.2km/h 64% 0in /  0.0mm 480 W/m2
09:34 59.9 °F /  15.5 °C 47.7 °F /  8.7 °C 30.1in /  1017.6hPa East 2mph /  3.2km/h 2mph /  3.2km/h 64% 0in /  0.0mm 475 W/m2
09:39 60.4 °F /  15.8 °C 47.3 °F /  8.5 °C 30.1in /  1017.6hPa NNE 0.9mph /  1.4km/h 3mph /  4.8km/h 62% 0in /  0.0mm 487 W/m2
09:44 61 °F /  16.1 °C 47.5 °F /  8.6 °C 30.1in /  1017.6hPa ENE 2mph /  3.2km/h 3mph /  4.8km/h 61% 0in /  0.0mm 520 W/m2
09:49 61.5 °F /  16.4 °C 47.1 °F /  8.4 °C 30.1in /  1017.6hPa ENE 0.9mph /  1.4km/h 3mph /  4.8km/h 59% 0in /  0.0mm 497 W/m2
09:54 61.7 °F /  16.5 °C 46.8 °F /  8.2 °C 30.1in /  1017.6hPa East 2mph /  3.2km/h 3mph /  4.8km/h 58% 0in /  0.0mm 540 W/m2
09:59 62.1 °F /  16.7 °C 47.1 °F /  8.4 °C 30in /  1017.3hPa Calm   1mph /  1.6km/h 58% 0in /  0.0mm 557 W/m2
10:04 62.2 °F /  16.8 °C 45.9 °F /  7.7 °C 30in /  1017.3hPa NE 0.9mph /  1.4km/h 2mph /  3.2km/h 55% 0in /  0.0mm 557 W/m2
10:09 62.4 °F /  16.9 °C 45.5 °F /  7.5 °C 30in /  1017.3hPa Calm   2mph /  3.2km/h 54% 0in /  0.0mm 88 W/m2
10:14 63.1 °F /  17.3 °C 47.1 °F /  8.4 °C 30in /  1017.3hPa East 2mph /  3.2km/h 3mph /  4.8km/h 56% 0in /  0.0mm 566 W/m2
10:19 63.7 °F /  17.6 °C 47.3 °F /  8.5 °C 30in /  1017.3hPa ENE 2mph /  3.2km/h 3mph /  4.8km/h 55% 0in /  0.0mm 598 W/m2
10:24 64 °F /  17.8 °C 47.5 °F /  8.6 °C 30in /  1017.3hPa ESE 2mph /  3.2km/h 2mph /  3.2km/h 55% 0in /  0.0mm 580 W/m2
10:29 64.9 °F /  18.3 °C 47.5 °F /  8.6 °C 30in /  1017.3hPa SE 2mph /  3.2km/h 4mph /  6.4km/h 53% 0in /  0.0mm 613 W/m2
10:34 65.5 °F /  18.6 °C 47.8 °F /  8.8 °C 30in /  1017.3hPa SE 0.9mph /  1.4km/h 1mph /  1.6km/h 53% 0in /  0.0mm 626 W/m2
10:39 66 °F /  18.9 °C 48.9 °F /  9.4 °C 30in /  1016.9hPa NE 2mph /  3.2km/h 5mph /  8km/h 54% 0in /  0.0mm 643 W/m2
10:44 66 °F /  18.9 °C 48.4 °F /  9.1 °C 30in /  1016.9hPa NE 0.9mph /  1.4km/h 2mph /  3.2km/h 53% 0in /  0.0mm 654 W/m2
10:49 66.4 °F /  19.1 °C 48.2 °F /  9 °C 30in /  1016.9hPa Calm   2mph /  3.2km/h 52% 0in /  0.0mm 657 W/m2
10:54 66.7 °F /  19.3 °C 48.6 °F /  9.2 °C 30in /  1016.9hPa NNE 2mph /  3.2km/h 3mph /  4.8km/h 52% 0in /  0.0mm 671 W/m2
10:59 66.7 °F /  19.3 °C 48.6 °F /  9.2 °C 30in /  1016.9hPa NE 0.9mph /  1.4km/h 2mph /  3.2km/h 52% 0in /  0.0mm 679 W/m2
11:04 67.1 °F /  19.5 °C 46.2 °F /  7.9 °C 30in /  1016.9hPa NE 2.9mph /  4.7km/h 5mph /  8km/h 47% 0in /  0.0mm 666 W/m2
11:09 66.9 °F /  19.4 °C 47.1 °F /  8.4 °C 30in /  1016.9hPa SSW 2mph /  3.2km/h 2mph /  3.2km/h 49% 0in /  0.0mm 682 W/m2
11:14 67.6 °F /  19.8 °C 48.4 °F /  9.1 °C 30in /  1016.9hPa Calm   5mph /  8km/h 50% 0in /  0.0mm 714 W/m2
11:19 68.2 °F /  20.1 °C 46.6 °F /  8.1 °C 30in /  1016.9hPa East 4mph /  6.4km/h 4mph /  6.4km/h 46% 0in /  0.0mm 701 W/m2
11:24 68.4 °F /  20.2 °C 47.3 °F /  8.5 °C 30in /  1016.9hPa NE 4mph /  6.4km/h 4mph /  6.4km/h 47% 0in /  0.0mm 714 W/m2
11:29 68.7 °F /  20.4 °C 47.1 °F /  8.4 °C 30in /  1016.9hPa SE 2mph /  3.2km/h 4mph /  6.4km/h 46% 0in /  0.0mm 657 W/m2
11:34 68.9 °F /  20.5 °C 46.8 °F /  8.2 °C 30in /  1016.9hPa East 0.9mph /  1.4km/h 4mph /  6.4km/h 45% 0in /  0.0mm 754 W/m2
11:39 69.3 °F /  20.7 °C 46.9 °F /  8.3 °C 30in /  1016.9hPa East 2mph /  3.2km/h 3mph /  4.8km/h 45% 0in /  0.0mm 673 W/m2
11:44 69.6 °F /  20.9 °C 46.8 °F /  8.2 °C 30in /  1016.9hPa Calm   2mph /  3.2km/h 44% 0in /  0.0mm 728 W/m2
11:49 69.6 °F /  20.9 °C 45.5 °F /  7.5 °C 30in /  1016.6hPa West 2.9mph /  4.7km/h 3mph /  4.8km/h 42% 0in /  0.0mm 800 W/m2
11:54 69.6 °F /  20.9 °C 45.5 °F /  7.5 °C 30in /  1016.6hPa Calm   3mph /  4.8km/h 42% 0in /  0.0mm 605 W/m2
11:59 70 °F /  21.1 °C 46.4 °F /  8 °C 30in /  1016.6hPa NE 2mph /  3.2km/h 5mph /  8km/h 43% 0in /  0.0mm 281 W/m2
12:04 69.6 °F /  20.9 °C 46.2 °F /  7.9 °C 30in /  1016.6hPa Calm   1mph /  1.6km/h 43% 0in /  0.0mm 450 W/m2
12:09 69.6 °F /  20.9 °C 45 °F /  7.2 °C 30in /  1016.6hPa NE 0.9mph /  1.4km/h 3mph /  4.8km/h 41% 0in /  0.0mm 752 W/m2
12:14 69.6 °F /  20.9 °C 46.2 °F /  7.9 °C 30in /  1016.6hPa East 2mph /  3.2km/h 4mph /  6.4km/h 43% 0in /  0.0mm 914 W/m2
12:19 70.2 °F /  21.2 °C 47.3 °F /  8.5 °C 30in /  1016.6hPa ESE 2mph /  3.2km/h 4mph /  6.4km/h 44% 0in /  0.0mm 773 W/m2
12:24 70.7 °F /  21.5 °C 45.9 °F /  7.7 °C 30in /  1016.3hPa NNW 0.9mph /  1.4km/h 3mph /  4.8km/h 41% 0in /  0.0mm 559 W/m2
12:29 71.2 °F /  21.8 °C 45.7 °F /  7.6 °C 30in /  1016.3hPa SE 2mph /  3.2km/h 2mph /  3.2km/h 40% 0in /  0.0mm 367 W/m2
12:34 71.1 °F /  21.7 °C 46.2 °F /  7.9 °C 30in /  1016.3hPa East 2mph /  3.2km/h 3mph /  4.8km/h 41% 0in /  0.0mm 592 W/m2
12:39 70.9 °F /  21.6 °C 44.8 °F /  7.1 °C 30in /  1016.3hPa NW 0.9mph /  1.4km/h 2mph /  3.2km/h 39% 0in /  0.0mm 364 W/m2
12:44 71.1 °F /  21.7 °C 44.2 °F /  6.8 °C 30in /  1016.3hPa NE 0.9mph /  1.4km/h 2mph /  3.2km/h 38% 0in /  0.0mm 431 W/m2
12:49 71.2 °F /  21.8 °C 43.7 °F /  6.5 °C 30in /  1016.3hPa East 2mph /  3.2km/h 4mph /  6.4km/h 37% 0in /  0.0mm 615 W/m2
12:54 71.4 °F /  21.9 °C 43.7 °F /  6.5 °C 30in /  1016.3hPa NNW 0.9mph /  1.4km/h 3mph /  4.8km/h 37% 0in /  0.0mm 675 W/m2
12:59 71.8 °F /  22.1 °C 41.9 °F /  5.5 °C 30in /  1016.3hPa ENE 2mph /  3.2km/h 3mph /  4.8km/h 34% 0in /  0.0mm 621 W/m2
13:04 71.8 °F /  22.1 °C 43.3 °F /  6.3 °C 30in /  1016.3hPa NW 4mph /  6.4km/h 4mph /  6.4km/h 36% 0in /  0.0mm 691 W/m2
13:09 72 °F /  22.2 °C 42.8 °F /  6 °C 30in /  1016.3hPa North 0.9mph /  1.4km/h 3mph /  4.8km/h 35% 0in /  0.0mm 737 W/m2
13:14 72.1 °F /  22.3 °C 44.4 °F /  6.9 °C 30in /  1016.3hPa Calm   3mph /  4.8km/h 37% 0in /  0.0mm 710 W/m2
13:19 72.3 °F /  22.4 °C 44.6 °F /  7 °C 30in /  1015.9hPa ESE 0.9mph /  1.4km/h 2mph /  3.2km/h 37% 0in /  0.0mm 758 W/m2
13:24 72.7 °F /  22.6 °C 45.7 °F /  7.6 °C 30in /  1015.9hPa ENE 2.9mph /  4.7km/h 7mph /  11.3km/h 38% 0in /  0.0mm 700 W/m2
13:29 72.9 °F /  22.7 °C 44.4 °F /  6.9 °C 30in /  1015.9hPa ESE 2.9mph /  4.7km/h 5mph /  8km/h 36% 0in /  0.0mm 729 W/m2
13:34 73 °F /  22.8 °C 43.7 °F /  6.5 °C 30in /  1015.9hPa WNW 2mph /  3.2km/h 6mph /  9.7km/h 35% 0in /  0.0mm 793 W/m2
13:39 73 °F /  22.8 °C 44.4 °F /  6.9 °C 30in /  1015.9hPa NNW 0.9mph /  1.4km/h 3mph /  4.8km/h 36% 0in /  0.0mm 868 W/m2
13:44 73.2 °F /  22.9 °C 46 °F /  7.8 °C 30in /  1015.9hPa NNW 2mph /  3.2km/h 3mph /  4.8km/h 38% 0in /  0.0mm 722 W/m2
13:49 73.4 °F /  23 °C 45.5 °F /  7.5 °C 30in /  1015.6hPa ENE 0.9mph /  1.4km/h 3mph /  4.8km/h 37% 0in /  0.0mm 831 W/m2
13:54 73.6 °F /  23.1 °C 45.7 °F /  7.6 °C 30in /  1015.6hPa Calm   3mph /  4.8km/h 37% 0in /  0.0mm 812 W/m2
13:59 74.1 °F /  23.4 °C 45.5 °F /  7.5 °C 30in /  1015.6hPa NNW 0.9mph /  1.4km/h 3mph /  4.8km/h 36% 0in /  0.0mm 830 W/m2
14:05 74.5 °F /  23.6 °C 45 °F /  7.2 °C 30in /  1015.6hPa East 4mph /  6.4km/h 6mph /  9.7km/h 35% 0in /  0.0mm 911 W/m2
14:10 74.7 °F /  23.7 °C 44.4 °F /  6.9 °C 30in /  1015.6hPa ENE 0.9mph /  1.4km/h 4mph /  6.4km/h 34% 0in /  0.0mm 928 W/m2
14:15 74.5 °F /  23.6 °C 45 °F /  7.2 °C 30in /  1015.6hPa NE 2mph /  3.2km/h 4mph /  6.4km/h 35% 0in /  0.0mm 846 W/m2
14:20 74.8 °F /  23.8 °C 46.8 °F /  8.2 °C 30in /  1015.6hPa ESE 2.9mph /  4.7km/h 4mph /  6.4km/h 37% 0in /  0.0mm 800 W/m2
14:25 74.8 °F /  23.8 °C 46 °F /  7.8 °C 30in /  1015.2hPa ESE 0.9mph /  1.4km/h 5mph /  8km/h 36% 0in /  0.0mm 733 W/m2
14:30 74.8 °F /  23.8 °C 48.2 °F /  9 °C 30in /  1015.2hPa ESE 6mph /  9.7km/h 7mph /  11.3km/h 39% 0in /  0.0mm 858 W/m2
14:35 74.8 °F /  23.8 °C 43.9 °F /  6.6 °C 30in /  1015.2hPa ENE 4mph /  6.4km/h 4mph /  6.4km/h 33% 0in /  0.0mm 494 W/m2
14:40 74.5 °F /  23.6 °C 45 °F /  7.2 °C 30in /  1015.2hPa NE 0.9mph /  1.4km/h 3mph /  4.8km/h 35% 0in /  0.0mm 902 W/m2
14:45 74.3 °F /  23.5 °C 45 °F /  7.2 °C 30in /  1015.2hPa Calm   3mph /  4.8km/h 35% 0in /  0.0mm 715 W/m2
14:50 74.5 °F /  23.6 °C 43.5 °F /  6.4 °C 30in /  1015.2hPa NNW 2mph /  3.2km/h 2mph /  3.2km/h 33% 0in /  0.0mm 856 W/m2
14:55 74.3 °F /  23.5 °C 44.1 °F /  6.7 °C 30in /  1015.2hPa NW 2.9mph /  4.7km/h 5mph /  8km/h 34% 0in /  0.0mm 747 W/m2
15:00 74.5 °F /  23.6 °C 45.9 °F /  7.7 °C 30in /  1015.2hPa Calm   2mph /  3.2km/h 36% 0in /  0.0mm 735 W/m2
15:05 74.8 °F /  23.8 °C 48.2 °F /  9 °C 30in /  1014.9hPa East 0.9mph /  1.4km/h 4mph /  6.4km/h 39% 0in /  0.0mm 768 W/m2
15:10 75.4 °F /  24.1 °C 46.6 °F /  8.1 °C 30in /  1014.9hPa ESE 0.9mph /  1.4km/h 3mph /  4.8km/h 36% 0in /  0.0mm 715 W/m2
15:15 75.2 °F /  24 °C 47.1 °F /  8.4 °C 30in /  1014.9hPa East 2mph /  3.2km/h 4mph /  6.4km/h 37% 0in /  0.0mm 432 W/m2
15:20 74.8 °F /  23.8 °C 46 °F /  7.8 °C 30in /  1014.9hPa ENE 2mph /  3.2km/h 2mph /  3.2km/h 36% 0in /  0.0mm 501 W/m2
15:25 74.5 °F /  23.6 °C 45 °F /  7.2 °C 30in /  1014.9hPa East 0.9mph /  1.4km/h 4mph /  6.4km/h 35% 0in /  0.0mm 531 W/m2
15:30 74.5 °F /  23.6 °C 45.9 °F /  7.7 °C 30in /  1014.9hPa ESE 2.9mph /  4.7km/h 8mph /  12.9km/h 36% 0in /  0.0mm 513 W/m2
15:35 74.7 °F /  23.7 °C 48 °F /  8.9 °C 30in /  1014.6hPa East 0.9mph /  1.4km/h 3mph /  4.8km/h 39% 0in /  0.0mm 524 W/m2
15:40 75 °F /  23.9 °C 45.5 °F /  7.5 °C 30in /  1014.6hPa NE 2mph /  3.2km/h 8mph /  12.9km/h 35% 0in /  0.0mm 663 W/m2
15:45 75.6 °F /  24.2 °C 45.1 °F /  7.3 °C 30in /  1014.6hPa ENE 2.9mph /  4.7km/h 6mph /  9.7km/h 34% 0in /  0.0mm 826 W/m2
15:50 75.6 °F /  24.2 °C 45.1 °F /  7.3 °C 30in /  1014.6hPa NW 0.9mph /  1.4km/h 2mph /  3.2km/h 34% 0in /  0.0mm 559 W/m2
15:55 75.6 °F /  24.2 °C 46 °F /  7.8 °C 30in /  1014.6hPa SW 0.9mph /  1.4km/h 3mph /  4.8km/h 35% 0in /  0.0mm 612 W/m2
16:00 75.4 °F /  24.1 °C 47.3 °F /  8.5 °C 30in /  1014.6hPa SSE 0.9mph /  1.4km/h 4mph /  6.4km/h 37% 0in /  0.0mm 519 W/m2
16:05 75.4 °F /  24.1 °C 46.6 °F /  8.1 °C 30in /  1014.6hPa Calm   4mph /  6.4km/h 36% 0in /  0.0mm 636 W/m2
16:10 75.7 °F /  24.3 °C 46.2 °F /  7.9 °C 30in /  1014.6hPa ENE 2mph /  3.2km/h 6mph /  9.7km/h 35% 0in /  0.0mm 663 W/m2
16:15 75.9 °F /  24.4 °C 46.2 °F /  7.9 °C 30in /  1014.6hPa WSW 2.9mph /  4.7km/h 3mph /  4.8km/h 35% 0in /  0.0mm 689 W/m2
16:20 75.9 °F /  24.4 °C 47.1 °F /  8.4 °C 30in /  1014.6hPa Calm   2mph /  3.2km/h 36% 0in /  0.0mm 297 W/m2
16:25 76.1 °F /  24.5 °C 47.1 °F /  8.4 °C 30in /  1014.6hPa Calm   2mph /  3.2km/h 36% 0in /  0.0mm 835 W/m2
16:30 76.6 °F /  24.8 °C 47.7 °F /  8.7 °C 30in /  1014.2hPa Calm   2mph /  3.2km/h 36% 0in /  0.0mm 357 W/m2
16:35 76.5 °F /  24.7 °C 48.2 °F /  9 °C 30in /  1014.2hPa WNW 0.9mph /  1.4km/h 3mph /  4.8km/h 37% 0in /  0.0mm 357 W/m2
16:40 76.3 °F /  24.6 °C 45.9 °F /  7.7 °C 30in /  1014.2hPa NW 0.9mph /  1.4km/h 2mph /  3.2km/h 34% 0in /  0.0mm 309 W/m2
16:46 76.3 °F /  24.6 °C 47.3 °F /  8.5 °C 30in /  1014.2hPa West 0.9mph /  1.4km/h 3mph /  4.8km/h 36% 0in /  0.0mm 705 W/m2
16:51 76.5 °F /  24.7 °C 47.5 °F /  8.6 °C 30in /  1014.2hPa SSW 0.9mph /  1.4km/h 2mph /  3.2km/h 36% 0in /  0.0mm 446 W/m2
16:56 76.6 °F /  24.8 °C 48.4 °F /  9.1 °C 30in /  1014.2hPa West 0.9mph /  1.4km/h 2mph /  3.2km/h 37% 0in /  0.0mm 352 W/m2
17:01 76.5 °F /  24.7 °C 47.5 °F /  8.6 °C 30in /  1014.2hPa Calm   1mph /  1.6km/h 36% 0in /  0.0mm 380 W/m2
17:06 76.6 °F /  24.8 °C 48.4 °F /  9.1 °C 30in /  1014.2hPa ESE 2mph /  3.2km/h 3mph /  4.8km/h 37% 0in /  0.0mm 257 W/m2
17:11 76.3 °F /  24.6 °C 45.9 °F /  7.7 °C 29.9in /  1013.9hPa Calm   1mph /  1.6km/h 34% 0in /  0.0mm 297 W/m2
17:16 76.3 °F /  24.6 °C 46.6 °F /  8.1 °C 29.9in /  1013.9hPa East 2mph /  3.2km/h 2mph /  3.2km/h 35% 0in /  0.0mm 673 W/m2
17:21 76.5 °F /  24.7 °C 48.2 °F /  9 °C 29.9in /  1013.9hPa Calm   2mph /  3.2km/h 37% 0in /  0.0mm 545 W/m2
17:26 76.6 °F /  24.8 °C 47.7 °F /  8.7 °C 29.9in /  1013.9hPa ENE 2mph /  3.2km/h 4mph /  6.4km/h 36% 0in /  0.0mm 513 W/m2
17:31 76.8 °F /  24.9 °C 46.4 °F /  8 °C 29.9in /  1013.9hPa Calm   2mph /  3.2km/h 34% 0in /  0.0mm 473 W/m2
17:36 77.2 °F /  25.1 °C 46.6 °F /  8.1 °C 29.9in /  1013.9hPa Calm   4mph /  6.4km/h 34% 0in /  0.0mm 448 W/m2
17:41 77.2 °F /  25.1 °C 47.5 °F /  8.6 °C 29.9in /  1013.5hPa East 0.9mph /  1.4km/h 4mph /  6.4km/h 35% 0in /  0.0mm 418 W/m2
17:46 77 °F /  25 °C 47.3 °F /  8.5 °C 29.9in /  1013.5hPa Calm   3mph /  4.8km/h 35% 0in /  0.0mm 404 W/m2
17:51 77.4 °F /  25.2 °C 49.1 °F /  9.5 °C 29.9in /  1013.5hPa East 0.9mph /  1.4km/h 1mph /  1.6km/h 37% 0in /  0.0mm 279 W/m2
17:56 76.8 °F /  24.9 °C 46.4 °F /  8 °C 29.9in /  1013.5hPa SSE 0.9mph /  1.4km/h 3mph /  4.8km/h 34% 0in /  0.0mm 202 W/m2
18:01 76.5 °F /  24.7 °C 46 °F /  7.8 °C 29.9in /  1013.5hPa NNE 2mph /  3.2km/h 4mph /  6.4km/h 34% 0in /  0.0mm 204 W/m2
18:06 75.9 °F /  24.4 °C 45.5 °F /  7.5 °C 29.9in /  1013.5hPa NE 0.9mph /  1.4km/h 4mph /  6.4km/h 34% 0in /  0.0mm 178 W/m2
18:11 75.6 °F /  24.2 °C 46 °F /  7.8 °C 29.9in /  1013.5hPa NNW 2mph /  3.2km/h 3mph /  4.8km/h 35% 0in /  0.0mm 165 W/m2
18:16 75.4 °F /  24.1 °C 45.9 °F /  7.7 °C 29.9in /  1013.5hPa NNW 0.9mph /  1.4km/h 4mph /  6.4km/h 35% 0in /  0.0mm 144 W/m2
18:21 74.8 °F /  23.8 °C 45.3 °F /  7.4 °C 29.9in /  1013.5hPa West 0.9mph /  1.4km/h 3mph /  4.8km/h 35% 0in /  0.0mm 151 W/m2
18:26 74.5 °F /  23.6 °C 45.9 °F /  7.7 °C 29.9in /  1013.2hPa East 2mph /  3.2km/h 3mph /  4.8km/h 36% 0in /  0.0mm 151 W/m2
18:31 74.5 °F /  23.6 °C 46.6 °F /  8.1 °C 29.9in /  1013.2hPa WNW 2mph /  3.2km/h 2mph /  3.2km/h 37% 0in /  0.0mm 341 W/m2
18:36 74.8 °F /  23.8 °C 46.8 °F /  8.2 °C 29.9in /  1013.2hPa NNW 2mph /  3.2km/h 3mph /  4.8km/h 37% 0in /  0.0mm 199 W/m2
18:42 75 °F /  23.9 °C 46.2 °F /  7.9 °C 29.9in /  1013.2hPa Calm   6mph /  9.7km/h 36% 0in /  0.0mm 264 W/m2
18:47 75.4 °F /  24.1 °C 45.9 °F /  7.7 °C 29.9in /  1013.2hPa North 0.9mph /  1.4km/h 2mph /  3.2km/h 35% 0in /  0.0mm 341 W/m2
18:52 75.6 °F /  24.2 °C 47.5 °F /  8.6 °C 29.9in /  1013.2hPa ENE 2.9mph /  4.7km/h 6mph /  9.7km/h 37% 0in /  0.0mm 151 W/m2
18:57 75.4 °F /  24.1 °C 46.6 °F /  8.1 °C 29.9in /  1013.2hPa ENE 0.9mph /  1.4km/h 2mph /  3.2km/h 36% 0in /  0.0mm 146 W/m2
19:02 75.2 °F /  24 °C 45.7 °F /  7.6 °C 29.9in /  1013.2hPa ENE 2mph /  3.2km/h 4mph /  6.4km/h 35% 0in /  0.0mm 90 W/m2
19:07 74.8 °F /  23.8 °C 46 °F /  7.8 °C 29.9in /  1013.2hPa NW 2.9mph /  4.7km/h 3mph /  4.8km/h 36% 0in /  0.0mm 100 W/m2
19:12 74.5 °F /  23.6 °C 45.9 °F /  7.7 °C 29.9in /  1013.2hPa Calm   4mph /  6.4km/h 36% 0in /  0.0mm 207 W/m2
19:17 74.1 °F /  23.4 °C 45.5 °F /  7.5 °C 29.9in /  1013.2hPa North 0.9mph /  1.4km/h 3mph /  4.8km/h 36% 0in /  0.0mm 109 W/m2
19:22 73.9 °F /  23.3 °C 46 °F /  7.8 °C 29.9in /  1013.2hPa Calm   3mph /  4.8km/h 37% 0in /  0.0mm 121 W/m2
19:27 73.8 °F /  23.2 °C 45.1 °F /  7.3 °C 29.9in /  1013.2hPa WNW 2.9mph /  4.7km/h 5mph /  8km/h 36% 0in /  0.0mm 100 W/m2
19:32 73.8 °F /  23.2 °C 45.9 °F /  7.7 °C 29.9in /  1013.2hPa Calm   1mph /  1.6km/h 37% 0in /  0.0mm 102 W/m2
19:37 73.4 °F /  23 °C 46.2 °F /  7.9 °C 29.9in /  1013.2hPa NW 2mph /  3.2km/h 5mph /  8km/h 38% 0in /  0.0mm 181 W/m2
19:42 73.6 °F /  23.1 °C 47.1 °F /  8.4 °C 29.9in /  1013.2hPa Calm   2mph /  3.2km/h 39% 0in /  0.0mm 109 W/m2
19:47 73.6 °F /  23.1 °C 46.4 °F /  8 °C 29.9in /  1013.2hPa ENE 0.9mph /  1.4km/h 4mph /  6.4km/h 38% 0in /  0.0mm 88 W/m2
19:52 73.2 °F /  22.9 °C 46 °F /  7.8 °C 29.9in /  1013.2hPa ESE 2mph /  3.2km/h 2mph /  3.2km/h 38% 0in /  0.0mm 72 W/m2
19:57 72.9 °F /  22.7 °C 45.7 °F /  7.6 °C 29.9in /  1013.2hPa North 2mph /  3.2km/h 4mph /  6.4km/h 38% 0in /  0.0mm 69 W/m2
20:02 72.7 °F /  22.6 °C 45.7 °F /  7.6 °C 29.9in /  1013.2hPa Calm   1mph /  1.6km/h 38% 0in /  0.0mm 65 W/m2
20:07 72.3 °F /  22.4 °C 44.6 °F /  7 °C 29.9in /  1012.9hPa Calm   4mph /  6.4km/h 37% 0in /  0.0mm 62 W/m2
20:12 72.1 °F /  22.3 °C 45.1 °F /  7.3 °C 29.9in /  1012.9hPa Calm   1mph /  1.6km/h 38% 0in /  0.0mm 67 W/m2
20:17 72 °F /  22.2 °C 45.7 °F /  7.6 °C 29.9in /  1012.9hPa North 2mph /  3.2km/h 2mph /  3.2km/h 39% 0in /  0.0mm 47 W/m2
20:22 71.8 °F /  22.1 °C 44.8 °F /  7.1 °C 29.9in /  1012.9hPa NNE 0.9mph /  1.4km/h 2mph /  3.2km/h 38% 0in /  0.0mm 28 W/m2
20:27 71.4 °F /  21.9 °C 44.4 °F /  6.9 °C 29.9in /  1012.9hPa Calm   3mph /  4.8km/h 38% 0in /  0.0mm 21 W/m2
20:32 71.1 °F /  21.7 °C 44.8 °F /  7.1 °C 29.9in /  1012.9hPa East 0.9mph /  1.4km/h 1mph /  1.6km/h 39% 0in /  0.0mm 14 W/m2
20:37 70.9 °F /  21.6 °C 46 °F /  7.8 °C 29.9in /  1012.9hPa West 2mph /  3.2km/h 2mph /  3.2km/h 41% 0in /  0.0mm 11 W/m2
20:42 70.2 °F /  21.2 °C 46.6 °F /  8.1 °C 29.9in /  1012.9hPa Calm   1mph /  1.6km/h 43% 0in /  0.0mm 11 W/m2
20:47 69.6 °F /  20.9 °C 46.8 °F /  8.2 °C 29.9in /  1012.9hPa NW 0.9mph /  1.4km/h 1mph /  1.6km/h 44% 0in /  0.0mm 9 W/m2
20:52 68.7 °F /  20.4 °C 47.7 °F /  8.7 °C 29.9in /  1013.2hPa WNW 0.9mph /  1.4km/h 1mph /  1.6km/h 47% 0in /  0.0mm 7 W/m2
20:57 68 °F /  20 °C 46.9 °F /  8.3 °C 29.9in /  1012.9hPa WNW 0.9mph /  1.4km/h 1mph /  1.6km/h 47% 0in /  0.0mm 5 W/m2
21:02 67.3 °F /  19.6 °C 46.4 °F /  8 °C 29.9in /  1012.9hPa WNW 0.9mph /  1.4km/h 1mph /  1.6km/h 47% 0in /  0.0mm 0 W/m2
21:07 66.6 °F /  19.2 °C 46.2 °F /  7.9 °C 29.9in /  1012.9hPa WNW 0.9mph /  1.4km/h 1mph /  1.6km/h 48% 0in /  0.0mm 0 W/m2
21:12 66 °F /  18.9 °C 45.7 °F /  7.6 °C 29.9in /  1012.9hPa Calm   2mph /  3.2km/h 48% 0in /  0.0mm 0 W/m2
21:17 65.7 °F /  18.7 °C 45.5 °F /  7.5 °C 29.9in /  1012.9hPa Calm   2mph /  3.2km/h 48% 0in /  0.0mm 0 W/m2
21:22 65.3 °F /  18.5 °C 44.6 °F /  7 °C 29.9in /  1012.9hPa WNW 0.9mph /  1.4km/h 2mph /  3.2km/h 47% 0in /  0.0mm 0 W/m2
21:27 64.9 °F /  18.3 °C 45.3 °F /  7.4 °C 29.9in /  1012.9hPa Calm   1mph /  1.6km/h 49% 0in /  0.0mm 0 W/m2
21:32 64.8 °F /  18.2 °C 45.1 °F /  7.3 °C 29.9in /  1012.9hPa Calm   2mph /  3.2km/h 49% 0in /  0.0mm 0 W/m2
21:37 64.6 °F /  18.1 °C 45.5 °F /  7.5 °C 29.9in /  1013.2hPa Calm     50% 0in /  0.0mm 0 W/m2
21:42 64.2 °F /  17.9 °C 45.1 °F /  7.3 °C 29.9in /  1013.2hPa Calm   1mph /  1.6km/h 50% 0in /  0.0mm 0 W/m2
21:47 64 °F /  17.8 °C 45.5 °F /  7.5 °C 29.9in /  1013.2hPa Calm   1mph /  1.6km/h 51% 0in /  0.0mm 0 W/m2
21:52 63.7 °F /  17.6 °C 45.7 °F /  7.6 °C 29.9in /  1013.2hPa WNW 0.9mph /  1.4km/h 2mph /  3.2km/h 52% 0in /  0.0mm 0 W/m2
21:57 63.5 °F /  17.5 °C 45 °F /  7.2 °C 29.9in /  1013.2hPa Calm     51% 0in /  0.0mm 0 W/m2
22:02 63.1 °F /  17.3 °C 44.8 °F /  7.1 °C 29.9in /  1013.2hPa Calm     51% 0in /  0.0mm 0 W/m2
22:07 63.1 °F /  17.3 °C 44.8 °F /  7.1 °C 29.9in /  1013.2hPa Calm   1mph /  1.6km/h 51% 0in /  0.0mm 0 W/m2
22:12 63 °F /  17.2 °C 45.1 °F /  7.3 °C 29.9in /  1013.2hPa Calm     52% 0in /  0.0mm 0 W/m2
22:17 62.6 °F /  17 °C 45.1 °F /  7.3 °C 29.9in /  1013.2hPa Calm   1mph /  1.6km/h 53% 0in /  0.0mm 0 W/m2
22:22 62.4 °F /  16.9 °C 45.1 °F /  7.3 °C 29.9in /  1013.2hPa West 0.9mph /  1.4km/h 2mph /  3.2km/h 53% 0in /  0.0mm 0 W/m2
22:27 62.4 °F /  16.9 °C 43.5 °F /  6.4 °C 29.9in /  1013.2hPa West 0.9mph /  1.4km/h 3mph /  4.8km/h 50% 0in /  0.0mm 0 W/m2
22:32 62.6 °F /  17 °C 44.8 °F /  7.1 °C 29.9in /  1013.2hPa Calm     52% 0in /  0.0mm 0 W/m2
22:37 62.6 °F /  17 °C 44.8 °F /  7.1 °C 29.9in /  1013.2hPa Calm   2mph /  3.2km/h 52% 0in /  0.0mm 0 W/m2
22:42 62.4 °F /  16.9 °C 45.1 °F /  7.3 °C 29.9in /  1013.2hPa Calm     53% 0in /  0.0mm 0 W/m2
22:47 62.2 °F /  16.8 °C 45 °F /  7.2 °C 29.9in /  1012.9hPa Calm   1mph /  1.6km/h 53% 0in /  0.0mm 0 W/m2
22:52 62.1 °F /  16.7 °C 45.1 °F /  7.3 °C 29.9in /  1012.9hPa West 0.9mph /  1.4km/h 1mph /  1.6km/h 54% 0in /  0.0mm 0 W/m2
22:57 62.1 °F /  16.7 °C 45.7 °F /  7.6 °C 29.9in /  1012.9hPa West 0.9mph /  1.4km/h 1mph /  1.6km/h 55% 0in /  0.0mm 0 W/m2
23:03 62.1 °F /  16.7 °C 45.1 °F /  7.3 °C 29.9in /  1012.9hPa Calm   1mph /  1.6km/h 54% 0in /  0.0mm 0 W/m2
23:08 61.9 °F /  16.6 °C 46 °F /  7.8 °C 29.9in /  1012.9hPa West 0.9mph /  1.4km/h 1mph /  1.6km/h 56% 0in /  0.0mm 0 W/m2
23:13 61.9 °F /  16.6 °C 46 °F /  7.8 °C 29.9in /  1012.9hPa Calm     56% 0in /  0.0mm 0 W/m2
23:18 61.7 °F /  16.5 °C 45.3 °F /  7.4 °C 29.9in /  1012.9hPa West 0.9mph /  1.4km/h 2mph /  3.2km/h 55% 0in /  0.0mm 0 W/m2
23:23 61.5 °F /  16.4 °C 45.7 °F /  7.6 °C 29.9in /  1012.9hPa Calm     56% 0in /  0.0mm 0 W/m2
23:28 61.3 °F /  16.3 °C 45.5 °F /  7.5 °C 29.9in /  1012.9hPa Calm     56% 0in /  0.0mm 0 W/m2
23:33 61.3 °F /  16.3 °C 46 °F /  7.8 °C 29.9in /  1012.9hPa Calm     57% 0in /  0.0mm 0 W/m2
23:38 61.2 °F /  16.2 °C 45.9 °F /  7.7 °C 29.9in /  1012.9hPa Calm     57% 0in /  0.0mm 0 W/m2
23:43 61.2 °F /  16.2 °C 45.9 °F /  7.7 °C 29.9in /  1012.9hPa Calm     57% 0in /  0.0mm 0 W/m2
23:48 61 °F /  16.1 °C 46.6 °F /  8.1 °C 29.9in /  1012.9hPa Calm     59% 0in /  0.0mm 0 W/m2
23:53 61 °F /  16.1 °C 46.6 °F /  8.1 °C 29.9in /  1012.9hPa Calm     59% 0in /  0.0mm 0 W/m2
23:58 61 °F /  16.1 °C 45.7 °F /  7.6 °C 29.9in /  1012.9hPa Calm     57% 0in /  0.0mm 0 W/m2
Juneau County Weather
Compliments of Weather Underground - 4 mb